CAL1 RCKH-RCTP
Flight info
| Callsign | CAL1 |
|---|---|
| Flight time | 0h 34m |
| Altitude | 21000 |
| Route | TNN1H TNN TNN1A |
| Aircraft | A359/H-SDE2E3GHIJ3J4J5LM1ORWXY/LB1D1 |
Departure
| Time | 2026-04-15 04:35 |
|---|---|
| Airport | Kaohsiung International Airport (RCKH) |
Arrival
| Time | 2026-04-15 05:10 |
|---|---|
| Airport | Taiwan Taoyuan International Airport (RCTP) |
| Time | Latitude | Longitude | Altitude | Speed | Heading |
|---|---|---|---|---|---|
| 2026-04-15 04:24 | 22.57324 | 120.34238 | 39 ft | 0 kts | 268° |
| 2026-04-15 04:28 | 22.57324 | 120.34250 | 39 ft | 3 kts | 268° |
| 2026-04-15 04:28 | 22.57325 | 120.34272 | 39 ft | 3 kts | 268° |
| 2026-04-15 04:28 | 22.57326 | 120.34294 | 39 ft | 3 kts | 275° |
| 2026-04-15 04:29 | 22.57319 | 120.34315 | 38 ft | 3 kts | 317° |
| 2026-04-15 04:29 | 22.57302 | 120.34326 | 35 ft | 3 kts | 359° |
| 2026-04-15 04:29 | 22.57299 | 120.34326 | 36 ft | 0 kts | 360° |
| 2026-04-15 04:30 | 22.57300 | 120.34326 | 36 ft | 1 kts | 360° |
| 2026-04-15 04:30 | 22.57328 | 120.34327 | 38 ft | 7 kts | 3° |
| 2026-04-15 04:30 | 22.57387 | 120.34340 | 39 ft | 9 kts | 37° |
| 2026-04-15 04:31 | 22.57399 | 120.34413 | 40 ft | 13 kts | 90° |
| 2026-04-15 04:31 | 22.57396 | 120.34524 | 40 ft | 17 kts | 91° |
| 2026-04-15 04:31 | 22.57420 | 120.34607 | 40 ft | 12 kts | 37° |
| 2026-04-15 04:31 | 22.57504 | 120.34621 | 41 ft | 13 kts | 8° |
| 2026-04-15 04:32 | 22.57551 | 120.34692 | 41 ft | 13 kts | 89° |
| 2026-04-15 04:32 | 22.57548 | 120.34802 | 41 ft | 16 kts | 91° |
| 2026-04-15 04:32 | 22.57544 | 120.34935 | 41 ft | 19 kts | 92° |
| 2026-04-15 04:32 | 22.57539 | 120.35090 | 42 ft | 22 kts | 92° |
| 2026-04-15 04:33 | 22.57534 | 120.35263 | 42 ft | 24 kts | 91° |
| 2026-04-15 04:33 | 22.57528 | 120.35455 | 43 ft | 27 kts | 92° |
| 2026-04-15 04:33 | 22.57521 | 120.35662 | 44 ft | 29 kts | 92° |
| 2026-04-15 04:33 | 22.57515 | 120.35847 | 45 ft | 19 kts | 88° |
| 2026-04-15 04:34 | 22.57607 | 120.35917 | 46 ft | 18 kts | 2° |
| 2026-04-15 04:34 | 22.57680 | 120.35867 | 46 ft | 13 kts | 275° |
| 2026-04-15 04:34 | 22.57681 | 120.35843 | 46 ft | 0 kts | 274° |
| 2026-04-15 04:34 | 22.57685 | 120.35760 | 45 ft | 36 kts | 272° |
| 2026-04-15 04:35 | 22.57702 | 120.35185 | 42 ft | 114 kts | 271° |
| 2026-04-15 04:35 | 22.57738 | 120.34104 | 233 ft | 159 kts | 266° |
| 2026-04-15 04:35 | 22.57760 | 120.32933 | 1148 ft | 155 kts | 271° |
| 2026-04-15 04:35 | 22.57793 | 120.31715 | 1818 ft | 167 kts | 273° |
| 2026-04-15 04:36 | 22.57833 | 120.30391 | 2129 ft | 190 kts | 272° |
| 2026-04-15 04:36 | 22.57882 | 120.28857 | 2320 ft | 219 kts | 272° |
| 2026-04-15 04:36 | 22.57939 | 120.27111 | 2562 ft | 244 kts | 272° |
| 2026-04-15 04:36 | 22.57999 | 120.25206 | 2995 ft | 260 kts | 272° |
| 2026-04-15 04:37 | 22.58060 | 120.23224 | 3621 ft | 266 kts | 272° |
| 2026-04-15 04:37 | 22.58129 | 120.21207 | 4332 ft | 269 kts | 273° |
| 2026-04-15 04:37 | 22.58489 | 120.19216 | 5000 ft | 271 kts | 292° |
| 2026-04-15 04:37 | 22.59552 | 120.17556 | 5687 ft | 270 kts | 319° |
| 2026-04-15 04:38 | 22.61178 | 120.16577 | 6375 ft | 270 kts | 344° |
| 2026-04-15 04:38 | 22.63047 | 120.16451 | 6978 ft | 273 kts | 8° |
| 2026-04-15 04:38 | 22.64935 | 120.16779 | 7562 ft | 276 kts | 6° |
| 2026-04-15 04:38 | 22.66862 | 120.17003 | 8151 ft | 280 kts | 4° |
| 2026-04-15 04:39 | 22.68810 | 120.17180 | 8766 ft | 283 kts | 3° |
| 2026-04-15 04:39 | 22.70785 | 120.17343 | 9399 ft | 285 kts | 3° |
| 2026-04-15 04:39 | 22.72779 | 120.17502 | 10008 ft | 288 kts | 2° |
| 2026-04-15 04:39 | 22.74811 | 120.17659 | 10402 ft | 300 kts | 2° |
| 2026-04-15 04:40 | 22.76955 | 120.17823 | 10616 ft | 316 kts | 2° |
| 2026-04-15 04:40 | 22.79170 | 120.17990 | 10837 ft | 331 kts | 2° |
| 2026-04-15 04:40 | 22.81519 | 120.18168 | 11120 ft | 343 kts | 2° |
| 2026-04-15 04:40 | 22.83928 | 120.18353 | 11484 ft | 350 kts | 2° |
| 2026-04-15 04:41 | 22.86374 | 120.18541 | 11916 ft | 354 kts | 2° |
| 2026-04-15 04:41 | 22.88846 | 120.18730 | 12370 ft | 357 kts | 1° |
| 2026-04-15 04:41 | 22.91326 | 120.18920 | 12814 ft | 360 kts | 1° |
| 2026-04-15 04:41 | 22.93839 | 120.19112 | 13263 ft | 364 kts | 1° |
| 2026-04-15 04:42 | 22.96377 | 120.19307 | 13714 ft | 367 kts | 1° |
| 2026-04-15 04:42 | 22.98936 | 120.19502 | 14123 ft | 370 kts | 1° |
| 2026-04-15 04:42 | 23.01515 | 120.19699 | 14515 ft | 372 kts | 1° |
| 2026-04-15 04:42 | 23.04078 | 120.19895 | 14910 ft | 375 kts | 1° |
| 2026-04-15 04:43 | 23.06687 | 120.20094 | 15315 ft | 377 kts | 1° |
| 2026-04-15 04:43 | 23.09308 | 120.20295 | 15704 ft | 380 kts | 1° |
| 2026-04-15 04:43 | 23.11961 | 120.20498 | 16086 ft | 382 kts | 1° |
| 2026-04-15 04:43 | 23.14627 | 120.20709 | 16480 ft | 385 kts | 1° |
| 2026-04-15 04:44 | 23.17300 | 120.21010 | 16864 ft | 388 kts | 3° |
| 2026-04-15 04:44 | 23.19989 | 120.21349 | 17254 ft | 391 kts | 3° |
| 2026-04-15 04:44 | 23.22705 | 120.21688 | 17628 ft | 393 kts | 3° |
| 2026-04-15 04:44 | 23.25434 | 120.22022 | 18013 ft | 396 kts | 3° |
| 2026-04-15 04:45 | 23.28179 | 120.22354 | 18375 ft | 398 kts | 2° |
| 2026-04-15 04:45 | 23.30787 | 120.22667 | 18691 ft | 399 kts | 2° |
| 2026-04-15 04:45 | 23.32656 | 120.22892 | 18942 ft | 400 kts | 2° |
| 2026-04-15 04:45 | 23.35395 | 120.23219 | 19269 ft | 402 kts | 2° |
| 2026-04-15 04:46 | 23.38188 | 120.23553 | 19603 ft | 404 kts | 2° |
| 2026-04-15 04:46 | 23.43820 | 120.24226 | 20249 ft | 408 kts | 2° |
| 2026-04-15 04:46 | 23.46653 | 120.24565 | 20579 ft | 410 kts | 2° |
| 2026-04-15 04:47 | 23.49502 | 120.24905 | 20901 ft | 413 kts | 2° |
| 2026-04-15 04:47 | 23.52364 | 120.25247 | 21225 ft | 415 kts | 2° |
| 2026-04-15 04:47 | 23.55240 | 120.25591 | 21550 ft | 416 kts | 2° |
| 2026-04-15 04:47 | 23.58128 | 120.25937 | 21864 ft | 418 kts | 2° |
| 2026-04-15 04:48 | 23.61031 | 120.26285 | 22178 ft | 420 kts | 2° |
| 2026-04-15 04:48 | 23.63966 | 120.26635 | 22392 ft | 430 kts | 2° |
| 2026-04-15 04:48 | 23.66933 | 120.26989 | 22761 ft | 438 kts | 2° |
| 2026-04-15 04:48 | 23.70000 | 120.27403 | 22906 ft | 453 kts | 6° |
| 2026-04-15 04:49 | 23.73108 | 120.28265 | 22927 ft | 465 kts | 13° |
| 2026-04-15 04:49 | 23.76202 | 120.29339 | 22923 ft | 467 kts | 14° |
| 2026-04-15 04:49 | 23.79298 | 120.30432 | 22930 ft | 468 kts | 14° |
| 2026-04-15 04:49 | 23.82434 | 120.31531 | 22924 ft | 476 kts | 14° |
| 2026-04-15 04:50 | 23.85607 | 120.32636 | 22924 ft | 480 kts | 14° |
| 2026-04-15 04:50 | 23.88797 | 120.33746 | 22927 ft | 481 kts | 14° |
| 2026-04-15 04:50 | 23.91995 | 120.34858 | 22922 ft | 481 kts | 14° |
| 2026-04-15 04:50 | 23.95187 | 120.35965 | 22923 ft | 481 kts | 14° |
| 2026-04-15 04:51 | 23.98379 | 120.37074 | 22922 ft | 481 kts | 13° |
| 2026-04-15 04:51 | 24.01576 | 120.38183 | 22926 ft | 481 kts | 13° |
| 2026-04-15 04:51 | 24.04729 | 120.39278 | 22929 ft | 481 kts | 13° |
| 2026-04-15 04:51 | 24.07920 | 120.40386 | 22933 ft | 481 kts | 13° |
| 2026-04-15 04:52 | 24.11103 | 120.41492 | 22939 ft | 481 kts | 13° |
| 2026-04-15 04:52 | 24.14305 | 120.42606 | 22942 ft | 481 kts | 13° |
| 2026-04-15 04:52 | 24.17500 | 120.43717 | 22947 ft | 481 kts | 13° |
| 2026-04-15 04:52 | 24.20652 | 120.44817 | 22748 ft | 468 kts | 13° |
| 2026-04-15 04:53 | 24.23709 | 120.45885 | 22409 ft | 455 kts | 13° |
| 2026-04-15 04:53 | 24.26693 | 120.46925 | 21541 ft | 454 kts | 13° |
| 2026-04-15 04:53 | 24.29110 | 120.47763 | 20649 ft | 460 kts | 13° |
| 2026-04-15 04:53 | 24.32166 | 120.48825 | 19823 ft | 460 kts | 14° |
| 2026-04-15 04:54 | 24.35209 | 120.49887 | 19095 ft | 456 kts | 14° |
| 2026-04-15 04:54 | 24.38226 | 120.50941 | 18397 ft | 453 kts | 14° |
| 2026-04-15 04:54 | 24.41214 | 120.51984 | 17629 ft | 448 kts | 14° |
| 2026-04-15 04:54 | 24.44170 | 120.53016 | 16874 ft | 443 kts | 14° |
| 2026-04-15 04:55 | 24.47101 | 120.54040 | 16166 ft | 438 kts | 14° |
| 2026-04-15 04:55 | 24.49985 | 120.55048 | 15453 ft | 433 kts | 15° |
| 2026-04-15 04:55 | 24.52836 | 120.56045 | 14758 ft | 428 kts | 15° |
| 2026-04-15 04:55 | 24.55665 | 120.57034 | 14069 ft | 423 kts | 15° |
| 2026-04-15 04:56 | 24.58417 | 120.57998 | 13348 ft | 418 kts | 15° |
| 2026-04-15 04:56 | 24.61170 | 120.58966 | 12594 ft | 414 kts | 15° |
| 2026-04-15 04:56 | 24.63895 | 120.59924 | 11838 ft | 409 kts | 15° |
| 2026-04-15 04:56 | 24.66577 | 120.60913 | 11248 ft | 405 kts | 19° |
| 2026-04-15 04:57 | 24.68983 | 120.62552 | 11032 ft | 410 kts | 37° |
| 2026-04-15 04:57 | 24.71122 | 120.64637 | 10993 ft | 410 kts | 40° |
| 2026-04-15 04:57 | 24.73178 | 120.66715 | 10999 ft | 390 kts | 40° |
| 2026-04-15 04:57 | 24.75118 | 120.68666 | 11007 ft | 367 kts | 40° |
| 2026-04-15 04:58 | 24.76939 | 120.70483 | 11005 ft | 346 kts | 39° |
| 2026-04-15 04:58 | 24.78687 | 120.72218 | 11005 ft | 326 kts | 39° |
| 2026-04-15 04:58 | 24.80332 | 120.73846 | 11003 ft | 310 kts | 39° |
| 2026-04-15 04:58 | 24.81908 | 120.75400 | 10847 ft | 300 kts | 39° |
| 2026-04-15 04:59 | 24.83441 | 120.76910 | 10445 ft | 301 kts | 39° |
| 2026-04-15 04:59 | 24.85035 | 120.78478 | 10042 ft | 302 kts | 38° |
| 2026-04-15 04:59 | 24.86598 | 120.80017 | 9662 ft | 301 kts | 38° |
| 2026-04-15 04:59 | 24.88154 | 120.81549 | 9277 ft | 299 kts | 39° |
| 2026-04-15 05:00 | 24.89653 | 120.83027 | 8910 ft | 296 kts | 39° |
| 2026-04-15 05:00 | 24.91117 | 120.84711 | 8495 ft | 298 kts | 54° |
| 2026-04-15 05:00 | 24.91822 | 120.86823 | 8150 ft | 296 kts | 85° |
| 2026-04-15 05:00 | 24.91823 | 120.89048 | 7650 ft | 286 kts | 94° |
| 2026-04-15 05:01 | 24.91691 | 120.91196 | 6957 ft | 284 kts | 95° |
| 2026-04-15 05:01 | 24.91552 | 120.93357 | 6321 ft | 279 kts | 95° |
| 2026-04-15 05:01 | 24.91427 | 120.95476 | 5595 ft | 276 kts | 95° |
| 2026-04-15 05:01 | 24.91311 | 120.97591 | 5030 ft | 277 kts | 95° |
| 2026-04-15 05:02 | 24.91201 | 120.99686 | 4863 ft | 268 kts | 95° |
| 2026-04-15 05:02 | 24.91097 | 121.01690 | 4766 ft | 257 kts | 95° |
| 2026-04-15 05:02 | 24.90953 | 121.03620 | 4571 ft | 250 kts | 102° |
| 2026-04-15 05:02 | 24.90302 | 121.05347 | 4266 ft | 242 kts | 131° |
| 2026-04-15 05:03 | 24.89013 | 121.06414 | 4046 ft | 232 kts | 162° |
| 2026-04-15 05:03 | 24.87442 | 121.06525 | 4007 ft | 228 kts | 194° |
| 2026-04-15 05:03 | 24.86028 | 121.05780 | 3990 ft | 227 kts | 219° |
| 2026-04-15 05:03 | 24.85067 | 121.04407 | 3985 ft | 229 kts | 245° |
| 2026-04-15 05:04 | 24.84824 | 121.02687 | 4009 ft | 233 kts | 276° |
| 2026-04-15 05:04 | 24.85438 | 121.01036 | 3979 ft | 238 kts | 306° |
| 2026-04-15 05:04 | 24.86825 | 121.00039 | 3995 ft | 245 kts | 343° |
| 2026-04-15 05:04 | 24.88510 | 121.00135 | 4001 ft | 247 kts | 21° |
| 2026-04-15 05:05 | 24.89837 | 121.01259 | 4014 ft | 247 kts | 52° |
| 2026-04-15 05:05 | 24.90842 | 121.02791 | 4004 ft | 248 kts | 55° |
| 2026-04-15 05:05 | 24.91899 | 121.04304 | 3994 ft | 249 kts | 51° |
| 2026-04-15 05:05 | 24.93039 | 121.05749 | 3911 ft | 250 kts | 49° |
| 2026-04-15 05:06 | 24.94182 | 121.07185 | 3639 ft | 249 kts | 50° |
| 2026-04-15 05:06 | 24.95316 | 121.08637 | 3298 ft | 251 kts | 50° |
| 2026-04-15 05:06 | 24.96457 | 121.10095 | 2933 ft | 252 kts | 49° |
| 2026-04-15 05:06 | 24.97604 | 121.11554 | 2595 ft | 247 kts | 49° |
| 2026-04-15 05:07 | 24.98692 | 121.12938 | 2287 ft | 232 kts | 49° |
| 2026-04-15 05:07 | 24.99720 | 121.14249 | 1999 ft | 218 kts | 47° |
| 2026-04-15 05:07 | 25.00682 | 121.15476 | 1756 ft | 205 kts | 46° |
| 2026-04-15 05:07 | 25.01592 | 121.16633 | 1481 ft | 194 kts | 47° |
| 2026-04-15 05:08 | 25.02450 | 121.17727 | 1238 ft | 183 kts | 46° |
| 2026-04-15 05:08 | 25.03256 | 121.18751 | 1009 ft | 171 kts | 47° |
| 2026-04-15 05:08 | 25.03987 | 121.19683 | 799 ft | 159 kts | 46° |
| 2026-04-15 05:08 | 25.04698 | 121.20591 | 589 ft | 151 kts | 44° |
| 2026-04-15 05:09 | 25.05350 | 121.21420 | 390 ft | 142 kts | 45° |
| 2026-04-15 05:09 | 25.05970 | 121.22231 | 218 ft | 134 kts | 44° |
| 2026-04-15 05:09 | 25.06580 | 121.22997 | 102 ft | 129 kts | 41° |
| 2026-04-15 05:09 | 25.07080 | 121.23613 | 102 ft | 69 kts | 45° |
| 2026-04-15 05:10 | 25.07241 | 121.23716 | 102 ft | 11 kts | 20° |
| 2026-04-15 05:10 | 25.07312 | 121.23743 | 104 ft | 11 kts | 18° |
| 2026-04-15 05:10 | 25.07388 | 121.23771 | 105 ft | 12 kts | 18° |
| 2026-04-15 05:10 | 25.07475 | 121.23794 | 106 ft | 13 kts | 358° |
| 2026-04-15 05:11 | 25.07554 | 121.23738 | 107 ft | 15 kts | 318° |
| 2026-04-15 05:11 | 25.07642 | 121.23704 | 107 ft | 13 kts | 21° |
| 2026-04-15 05:11 | 25.07701 | 121.23766 | 107 ft | 11 kts | 50° |
| 2026-04-15 05:11 | 25.07749 | 121.23787 | 107 ft | 5 kts | 355° |
| 2026-04-15 05:12 | 25.07777 | 121.23774 | 107 ft | 3 kts | 322° |
| 2026-04-15 05:12 | 25.07803 | 121.23749 | 107 ft | 8 kts | 319° |